sensor_id;sensor_type;location;lat;lon;timestamp;P1;durP1;ratioP1;P2;durP2;ratioP2
39518;SDS011;25200;53.394;10.414;2022-12-07T00:01:06;22.63;;;10.77;;
39518;SDS011;25200;53.394;10.414;2022-12-07T00:03:34;22.70;;;11.75;;
39518;SDS011;25200;53.394;10.414;2022-12-07T00:06:00;22.13;;;10.88;;
39518;SDS011;25200;53.394;10.414;2022-12-07T00:08:27;19.85;;;10.20;;
39518;SDS011;25200;53.394;10.414;2022-12-07T00:10:53;17.52;;;9.02;;
39518;SDS011;25200;53.394;10.414;2022-12-07T00:13:18;19.45;;;9.63;;
39518;SDS011;25200;53.394;10.414;2022-12-07T00:15:44;18.60;;;9.43;;
39518;SDS011;25200;53.394;10.414;2022-12-07T00:18:10;19.88;;;9.07;;
39518;SDS011;25200;53.394;10.414;2022-12-07T00:20:36;21.35;;;9.90;;
39518;SDS011;25200;53.394;10.414;2022-12-07T00:23:01;21.50;;;9.43;;
39518;SDS011;25200;53.394;10.414;2022-12-07T00:25:27;19.92;;;9.43;;
39518;SDS011;25200;53.394;10.414;2022-12-07T00:27:53;21.30;;;10.40;;
39518;SDS011;25200;53.394;10.414;2022-12-07T00:30:24;18.05;;;9.27;;
39518;SDS011;25200;53.394;10.414;2022-12-07T00:32:49;18.98;;;9.48;;
39518;SDS011;25200;53.394;10.414;2022-12-07T00:35:15;20.90;;;10.18;;
39518;SDS011;25200;53.394;10.414;2022-12-07T00:37:41;24.58;;;9.68;;
39518;SDS011;25200;53.394;10.414;2022-12-07T00:40:07;18.50;;;9.23;;
39518;SDS011;25200;53.394;10.414;2022-12-07T00:42:33;17.67;;;9.07;;
39518;SDS011;25200;53.394;10.414;2022-12-07T00:44:58;21.23;;;10.18;;
39518;SDS011;25200;53.394;10.414;2022-12-07T00:47:24;19.42;;;10.07;;
39518;SDS011;25200;53.394;10.414;2022-12-07T00:49:49;23.35;;;10.25;;
39518;SDS011;25200;53.394;10.414;2022-12-07T00:52:15;23.65;;;11.13;;
39518;SDS011;25200;53.394;10.414;2022-12-07T00:54:41;21.05;;;10.15;;
39518;SDS011;25200;53.394;10.414;2022-12-07T00:57:06;21.95;;;10.48;;
39518;SDS011;25200;53.394;10.414;2022-12-07T00:59:32;21.45;;;10.23;;
39518;SDS011;25200;53.394;10.414;2022-12-07T01:01:58;24.45;;;11.23;;
39518;SDS011;25200;53.394;10.414;2022-12-07T01:04:23;22.40;;;10.07;;
39518;SDS011;25200;53.394;10.414;2022-12-07T01:06:49;20.73;;;10.13;;
39518;SDS011;25200;53.394;10.414;2022-12-07T01:09:15;20.90;;;9.63;;
39518;SDS011;25200;53.394;10.414;2022-12-07T01:11:40;24.38;;;10.15;;
39518;SDS011;25200;53.394;10.414;2022-12-07T01:14:06;22.88;;;10.75;;
39518;SDS011;25200;53.394;10.414;2022-12-07T01:16:32;21.20;;;9.95;;
39518;SDS011;25200;53.394;10.414;2022-12-07T01:18:58;24.45;;;10.02;;
39518;SDS011;25200;53.394;10.414;2022-12-07T01:21:29;21.02;;;10.02;;
39518;SDS011;25200;53.394;10.414;2022-12-07T01:24:00;20.60;;;9.50;;
39518;SDS011;25200;53.394;10.414;2022-12-07T01:26:26;25.52;;;10.27;;
39518;SDS011;25200;53.394;10.414;2022-12-07T01:28:52;24.42;;;10.13;;
39518;SDS011;25200;53.394;10.414;2022-12-07T01:31:20;23.08;;;10.07;;
39518;SDS011;25200;53.394;10.414;2022-12-07T01:33:48;22.42;;;8.88;;
39518;SDS011;25200;53.394;10.414;2022-12-07T01:36:22;22.35;;;9.65;;
39518;SDS011;25200;53.394;10.414;2022-12-07T01:41:23;20.95;;;8.68;;
39518;SDS011;25200;53.394;10.414;2022-12-07T01:44:10;21.90;;;9.45;;
39518;SDS011;25200;53.394;10.414;2022-12-07T01:46:39;21.52;;;9.02;;
39518;SDS011;25200;53.394;10.414;2022-12-07T01:49:06;23.88;;;8.90;;
39518;SDS011;25200;53.394;10.414;2022-12-07T01:51:45;19.77;;;8.95;;
39518;SDS011;25200;53.394;10.414;2022-12-07T01:54:12;26.90;;;9.35;;
39518;SDS011;25200;53.394;10.414;2022-12-07T01:56:40;23.42;;;8.73;;
39518;SDS011;25200;53.394;10.414;2022-12-07T01:59:09;22.75;;;9.38;;
39518;SDS011;25200;53.394;10.414;2022-12-07T02:01:35;28.02;;;9.30;;
39518;SDS011;25200;53.394;10.414;2022-12-07T02:04:00;19.98;;;8.20;;
39518;SDS011;25200;53.394;10.414;2022-12-07T02:06:27;25.17;;;9.98;;
39518;SDS011;25200;53.394;10.414;2022-12-07T02:08:53;23.42;;;8.52;;
39518;SDS011;25200;53.394;10.414;2022-12-07T02:11:18;29.50;;;8.80;;
39518;SDS011;25200;53.394;10.414;2022-12-07T02:13:45;22.50;;;9.07;;
39518;SDS011;25200;53.394;10.414;2022-12-07T02:21:51;20.92;;;8.80;;
39518;SDS011;25200;53.394;10.414;2022-12-07T02:30:13;17.75;;;7.70;;
39518;SDS011;25200;53.394;10.414;2022-12-07T02:35:15;21.92;;;9.15;;
39518;SDS011;25200;53.394;10.414;2022-12-07T02:40:57;25.75;;;8.88;;
39518;SDS011;25200;53.394;10.414;2022-12-07T02:43:52;21.40;;;8.32;;
39518;SDS011;25200;53.394;10.414;2022-12-07T02:46:28;15.38;;;7.07;;
39518;SDS011;25200;53.394;10.414;2022-12-07T02:48:58;27.27;;;7.83;;
39518;SDS011;25200;53.394;10.414;2022-12-07T02:51:25;16.88;;;6.90;;
39518;SDS011;25200;53.394;10.414;2022-12-07T02:53:50;16.20;;;7.60;;
39518;SDS011;25200;53.394;10.414;2022-12-07T03:07:11;17.77;;;6.57;;
39518;SDS011;25200;53.394;10.414;2022-12-07T03:12:19;14.98;;;5.55;;
39518;SDS011;25200;53.394;10.414;2022-12-07T03:14:55;16.25;;;6.13;;
39518;SDS011;25200;53.394;10.414;2022-12-07T03:17:26;15.68;;;5.95;;
39518;SDS011;25200;53.394;10.414;2022-12-07T03:19:57;15.63;;;5.57;;
39518;SDS011;25200;53.394;10.414;2022-12-07T03:22:25;19.73;;;5.68;;
39518;SDS011;25200;53.394;10.414;2022-12-07T03:24:59;18.63;;;6.30;;
39518;SDS011;25200;53.394;10.414;2022-12-07T03:27:33;12.18;;;4.97;;
39518;SDS011;25200;53.394;10.414;2022-12-07T03:35:10;10.57;;;4.25;;
39518;SDS011;25200;53.394;10.414;2022-12-07T03:40:19;8.85;;;4.25;;
39518;SDS011;25200;53.394;10.414;2022-12-07T03:42:48;10.38;;;4.00;;
39518;SDS011;25200;53.394;10.414;2022-12-07T03:45:14;13.30;;;4.43;;
39518;SDS011;25200;53.394;10.414;2022-12-07T03:47:48;12.23;;;4.05;;
39518;SDS011;25200;53.394;10.414;2022-12-07T03:53:15;9.02;;;3.70;;
39518;SDS011;25200;53.394;10.414;2022-12-07T03:55:45;12.25;;;3.92;;
39518;SDS011;25200;53.394;10.414;2022-12-07T03:58:15;8.35;;;3.47;;
39518;SDS011;25200;53.394;10.414;2022-12-07T04:00:43;10.13;;;3.63;;
39518;SDS011;25200;53.394;10.414;2022-12-07T04:03:10;12.90;;;3.47;;
39518;SDS011;25200;53.394;10.414;2022-12-07T04:05:36;11.25;;;3.17;;
39518;SDS011;25200;53.394;10.414;2022-12-07T04:08:03;11.10;;;3.25;;
39518;SDS011;25200;53.394;10.414;2022-12-07T04:10:29;9.75;;;3.33;;
39518;SDS011;25200;53.394;10.414;2022-12-07T04:12:55;9.40;;;3.33;;
39518;SDS011;25200;53.394;10.414;2022-12-07T04:15:21;7.07;;;3.03;;
39518;SDS011;25200;53.394;10.414;2022-12-07T04:17:47;7.93;;;3.60;;
39518;SDS011;25200;53.394;10.414;2022-12-07T04:20:12;8.55;;;3.10;;
39518;SDS011;25200;53.394;10.414;2022-12-07T04:22:38;9.10;;;3.78;;
39518;SDS011;25200;53.394;10.414;2022-12-07T04:25:04;9.80;;;3.05;;
39518;SDS011;25200;53.394;10.414;2022-12-07T04:27:30;10.43;;;2.90;;
39518;SDS011;25200;53.394;10.414;2022-12-07T04:29:56;10.07;;;3.25;;
39518;SDS011;25200;53.394;10.414;2022-12-07T04:32:22;7.22;;;2.90;;
39518;SDS011;25200;53.394;10.414;2022-12-07T04:34:48;8.60;;;2.85;;
39518;SDS011;25200;53.394;10.414;2022-12-07T04:37:14;8.75;;;2.75;;
39518;SDS011;25200;53.394;10.414;2022-12-07T04:39:40;9.73;;;2.60;;
39518;SDS011;25200;53.394;10.414;2022-12-07T04:42:06;8.07;;;2.40;;
39518;SDS011;25200;53.394;10.414;2022-12-07T04:44:32;7.55;;;2.92;;
39518;SDS011;25200;53.394;10.414;2022-12-07T04:46:57;10.65;;;2.70;;
39518;SDS011;25200;53.394;10.414;2022-12-07T04:49:23;6.75;;;2.55;;
39518;SDS011;25200;53.394;10.414;2022-12-07T04:51:50;6.85;;;2.40;;
39518;SDS011;25200;53.394;10.414;2022-12-07T04:54:16;6.30;;;2.30;;
39518;SDS011;25200;53.394;10.414;2022-12-07T04:56:42;4.95;;;2.30;;
39518;SDS011;25200;53.394;10.414;2022-12-07T04:59:09;9.48;;;2.50;;
39518;SDS011;25200;53.394;10.414;2022-12-07T05:01:39;6.47;;;2.35;;
39518;SDS011;25200;53.394;10.414;2022-12-07T05:04:05;6.80;;;2.30;;
39518;SDS011;25200;53.394;10.414;2022-12-07T05:06:31;7.43;;;2.63;;
39518;SDS011;25200;53.394;10.414;2022-12-07T05:08:57;6.55;;;2.42;;
39518;SDS011;25200;53.394;10.414;2022-12-07T05:11:23;9.85;;;2.38;;
39518;SDS011;25200;53.394;10.414;2022-12-07T05:14:10;5.40;;;2.42;;
39518;SDS011;25200;53.394;10.414;2022-12-07T05:16:39;7.18;;;2.75;;
39518;SDS011;25200;53.394;10.414;2022-12-07T05:19:06;5.25;;;2.40;;
39518;SDS011;25200;53.394;10.414;2022-12-07T05:21:32;6.93;;;2.70;;
39518;SDS011;25200;53.394;10.414;2022-12-07T05:23:58;7.80;;;2.53;;
39518;SDS011;25200;53.394;10.414;2022-12-07T05:26:24;6.03;;;2.35;;
39518;SDS011;25200;53.394;10.414;2022-12-07T05:28:53;5.45;;;2.33;;
39518;SDS011;25200;53.394;10.414;2022-12-07T05:31:20;7.43;;;2.55;;
39518;SDS011;25200;53.394;10.414;2022-12-07T05:33:46;8.05;;;2.40;;
39518;SDS011;25200;53.394;10.414;2022-12-07T05:36:12;6.95;;;2.60;;
39518;SDS011;25200;53.394;10.414;2022-12-07T05:38:37;5.57;;;2.30;;
39518;SDS011;25200;53.394;10.414;2022-12-07T05:41:04;3.92;;;1.95;;
39518;SDS011;25200;53.394;10.414;2022-12-07T05:43:31;6.95;;;2.47;;
39518;SDS011;25200;53.394;10.414;2022-12-07T05:45:57;7.03;;;2.55;;
39518;SDS011;25200;53.394;10.414;2022-12-07T05:48:23;5.07;;;2.33;;
39518;SDS011;25200;53.394;10.414;2022-12-07T05:50:49;7.18;;;2.40;;
39518;SDS011;25200;53.394;10.414;2022-12-07T05:53:16;6.07;;;2.10;;
39518;SDS011;25200;53.394;10.414;2022-12-07T05:55:42;6.63;;;2.53;;
39518;SDS011;25200;53.394;10.414;2022-12-07T05:58:08;5.45;;;2.28;;
39518;SDS011;25200;53.394;10.414;2022-12-07T06:00:54;6.55;;;2.13;;
39518;SDS011;25200;53.394;10.414;2022-12-07T06:03:20;9.07;;;2.22;;
39518;SDS011;25200;53.394;10.414;2022-12-07T06:05:46;6.43;;;2.50;;
39518;SDS011;25200;53.394;10.414;2022-12-07T06:08:12;7.03;;;2.30;;
39518;SDS011;25200;53.394;10.414;2022-12-07T06:10:40;4.47;;;1.98;;
39518;SDS011;25200;53.394;10.414;2022-12-07T06:13:06;5.85;;;2.50;;
39518;SDS011;25200;53.394;10.414;2022-12-07T06:15:35;7.47;;;2.33;;
39518;SDS011;25200;53.394;10.414;2022-12-07T06:18:01;6.60;;;2.20;;
39518;SDS011;25200;53.394;10.414;2022-12-07T06:20:27;7.18;;;2.13;;
39518;SDS011;25200;53.394;10.414;2022-12-07T06:22:53;8.25;;;2.40;;
39518;SDS011;25200;53.394;10.414;2022-12-07T06:25:18;6.05;;;2.15;;
39518;SDS011;25200;53.394;10.414;2022-12-07T06:27:44;5.15;;;2.22;;
39518;SDS011;25200;53.394;10.414;2022-12-07T06:30:10;7.40;;;2.55;;
39518;SDS011;25200;53.394;10.414;2022-12-07T06:32:36;5.50;;;2.17;;
39518;SDS011;25200;53.394;10.414;2022-12-07T06:35:02;5.68;;;2.47;;
39518;SDS011;25200;53.394;10.414;2022-12-07T06:37:28;6.95;;;2.10;;
39518;SDS011;25200;53.394;10.414;2022-12-07T06:39:54;4.70;;;2.30;;
39518;SDS011;25200;53.394;10.414;2022-12-07T06:42:20;6.82;;;2.60;;
39518;SDS011;25200;53.394;10.414;2022-12-07T06:44:46;5.70;;;2.50;;
39518;SDS011;25200;53.394;10.414;2022-12-07T06:47:11;5.85;;;2.55;;
39518;SDS011;25200;53.394;10.414;2022-12-07T06:49:37;8.23;;;2.50;;
39518;SDS011;25200;53.394;10.414;2022-12-07T06:52:03;7.80;;;2.13;;
39518;SDS011;25200;53.394;10.414;2022-12-07T06:54:30;7.82;;;2.17;;
39518;SDS011;25200;53.394;10.414;2022-12-07T06:56:56;5.88;;;2.42;;
39518;SDS011;25200;53.394;10.414;2022-12-07T06:59:22;5.50;;;2.20;;
39518;SDS011;25200;53.394;10.414;2022-12-07T07:01:47;9.05;;;2.67;;
39518;SDS011;25200;53.394;10.414;2022-12-07T07:04:13;6.18;;;2.75;;
39518;SDS011;25200;53.394;10.414;2022-12-07T07:06:39;9.32;;;3.67;;
39518;SDS011;25200;53.394;10.414;2022-12-07T07:09:04;6.80;;;3.15;;
39518;SDS011;25200;53.394;10.414;2022-12-07T07:11:30;8.05;;;2.97;;
39518;SDS011;25200;53.394;10.414;2022-12-07T07:13:56;6.53;;;3.10;;
39518;SDS011;25200;53.394;10.414;2022-12-07T07:16:24;5.22;;;2.70;;
39518;SDS011;25200;53.394;10.414;2022-12-07T07:18:49;6.88;;;2.95;;
39518;SDS011;25200;53.394;10.414;2022-12-07T07:21:15;9.38;;;3.20;;
39518;SDS011;25200;53.394;10.414;2022-12-07T07:23:41;6.00;;;2.72;;
39518;SDS011;25200;53.394;10.414;2022-12-07T07:26:06;4.80;;;2.40;;
39518;SDS011;25200;53.394;10.414;2022-12-07T07:28:32;6.63;;;3.10;;
39518;SDS011;25200;53.394;10.414;2022-12-07T07:30:57;8.40;;;2.95;;
39518;SDS011;25200;53.394;10.414;2022-12-07T07:33:23;6.57;;;3.08;;
39518;SDS011;25200;53.394;10.414;2022-12-07T07:35:49;6.93;;;3.17;;
39518;SDS011;25200;53.394;10.414;2022-12-07T07:38:14;5.72;;;2.85;;
39518;SDS011;25200;53.394;10.414;2022-12-07T07:40:40;6.07;;;2.92;;
39518;SDS011;25200;53.394;10.414;2022-12-07T07:43:06;5.28;;;2.85;;
39518;SDS011;25200;53.394;10.414;2022-12-07T07:45:31;5.40;;;2.83;;
39518;SDS011;25200;53.394;10.414;2022-12-07T07:47:57;6.32;;;2.78;;
39518;SDS011;25200;53.394;10.414;2022-12-07T07:50:23;7.20;;;2.92;;
39518;SDS011;25200;53.394;10.414;2022-12-07T07:52:48;7.72;;;2.70;;
39518;SDS011;25200;53.394;10.414;2022-12-07T07:55:14;7.18;;;2.97;;
39518;SDS011;25200;53.394;10.414;2022-12-07T07:57:40;6.57;;;2.53;;
39518;SDS011;25200;53.394;10.414;2022-12-07T08:00:10;7.40;;;2.83;;
39518;SDS011;25200;53.394;10.414;2022-12-07T08:02:37;6.03;;;2.75;;
39518;SDS011;25200;53.394;10.414;2022-12-07T08:05:03;7.15;;;2.80;;
39518;SDS011;25200;53.394;10.414;2022-12-07T08:07:29;5.63;;;2.58;;
39518;SDS011;25200;53.394;10.414;2022-12-07T08:09:55;9.32;;;2.72;;
39518;SDS011;25200;53.394;10.414;2022-12-07T08:12:20;6.80;;;2.70;;
39518;SDS011;25200;53.394;10.414;2022-12-07T08:14:46;5.93;;;2.60;;
39518;SDS011;25200;53.394;10.414;2022-12-07T08:17:12;6.97;;;2.50;;
39518;SDS011;25200;53.394;10.414;2022-12-07T08:19:38;6.13;;;2.40;;
39518;SDS011;25200;53.394;10.414;2022-12-07T08:22:04;6.18;;;2.13;;
39518;SDS011;25200;53.394;10.414;2022-12-07T08:24:29;5.72;;;2.45;;
39518;SDS011;25200;53.394;10.414;2022-12-07T08:26:57;5.40;;;2.50;;
39518;SDS011;25200;53.394;10.414;2022-12-07T08:29:23;11.85;;;2.60;;
39518;SDS011;25200;53.394;10.414;2022-12-07T08:31:49;7.22;;;2.50;;
39518;SDS011;25200;53.394;10.414;2022-12-07T08:34:14;7.25;;;2.25;;
39518;SDS011;25200;53.394;10.414;2022-12-07T08:36:40;7.22;;;2.15;;
39518;SDS011;25200;53.394;10.414;2022-12-07T08:39:06;6.82;;;2.47;;
39518;SDS011;25200;53.394;10.414;2022-12-07T08:41:31;6.43;;;2.78;;
39518;SDS011;25200;53.394;10.414;2022-12-07T08:43:57;6.95;;;2.33;;
39518;SDS011;25200;53.394;10.414;2022-12-07T08:46:24;6.15;;;2.28;;
39518;SDS011;25200;53.394;10.414;2022-12-07T08:49:07;6.57;;;2.25;;
39518;SDS011;25200;53.394;10.414;2022-12-07T08:51:39;6.38;;;2.60;;
39518;SDS011;25200;53.394;10.414;2022-12-07T08:54:07;6.57;;;2.30;;
39518;SDS011;25200;53.394;10.414;2022-12-07T08:56:36;8.13;;;2.30;;
39518;SDS011;25200;53.394;10.414;2022-12-07T08:59:02;4.85;;;2.28;;
39518;SDS011;25200;53.394;10.414;2022-12-07T09:01:29;9.25;;;2.42;;
39518;SDS011;25200;53.394;10.414;2022-12-07T09:03:55;7.22;;;2.58;;
39518;SDS011;25200;53.394;10.414;2022-12-07T09:06:21;4.65;;;2.25;;
39518;SDS011;25200;53.394;10.414;2022-12-07T09:08:47;8.30;;;2.45;;
39518;SDS011;25200;53.394;10.414;2022-12-07T09:11:16;4.60;;;1.92;;
39518;SDS011;25200;53.394;10.414;2022-12-07T09:13:42;5.63;;;2.25;;
39518;SDS011;25200;53.394;10.414;2022-12-07T09:16:07;7.03;;;2.25;;
39518;SDS011;25200;53.394;10.414;2022-12-07T09:18:33;6.63;;;2.08;;
39518;SDS011;25200;53.394;10.414;2022-12-07T09:20:59;6.38;;;2.47;;
39518;SDS011;25200;53.394;10.414;2022-12-07T09:23:24;8.02;;;2.50;;
39518;SDS011;25200;53.394;10.414;2022-12-07T09:25:50;5.72;;;2.20;;
39518;SDS011;25200;53.394;10.414;2022-12-07T09:28:16;9.25;;;2.63;;
39518;SDS011;25200;53.394;10.414;2022-12-07T09:30:45;5.85;;;2.33;;
39518;SDS011;25200;53.394;10.414;2022-12-07T09:33:12;7.38;;;2.40;;
39518;SDS011;25200;53.394;10.414;2022-12-07T09:35:43;7.03;;;2.45;;
39518;SDS011;25200;53.394;10.414;2022-12-07T09:38:10;6.00;;;2.20;;
39518;SDS011;25200;53.394;10.414;2022-12-07T09:40:36;5.60;;;2.22;;
39518;SDS011;25200;53.394;10.414;2022-12-07T09:43:01;5.65;;;2.45;;
39518;SDS011;25200;53.394;10.414;2022-12-07T09:45:32;5.40;;;2.50;;
39518;SDS011;25200;53.394;10.414;2022-12-07T09:48:00;5.00;;;2.50;;
39518;SDS011;25200;53.394;10.414;2022-12-07T09:50:28;8.02;;;2.30;;
39518;SDS011;25200;53.394;10.414;2022-12-07T09:52:55;6.05;;;2.38;;
39518;SDS011;25200;53.394;10.414;2022-12-07T09:55:40;6.05;;;2.33;;
39518;SDS011;25200;53.394;10.414;2022-12-07T09:58:10;10.75;;;2.55;;
39518;SDS011;25200;53.394;10.414;2022-12-07T10:00:55;5.60;;;2.10;;
39518;SDS011;25200;53.394;10.414;2022-12-07T10:03:26;10.80;;;2.30;;
39518;SDS011;25200;53.394;10.414;2022-12-07T10:05:52;7.65;;;2.30;;
39518;SDS011;25200;53.394;10.414;2022-12-07T10:08:18;5.75;;;2.25;;
39518;SDS011;25200;53.394;10.414;2022-12-07T10:10:45;4.25;;;1.92;;
39518;SDS011;25200;53.394;10.414;2022-12-07T10:13:18;6.28;;;1.80;;
39518;SDS011;25200;53.394;10.414;2022-12-07T10:15:50;10.20;;;2.50;;
39518;SDS011;25200;53.394;10.414;2022-12-07T10:20:59;7.57;;;2.00;;
39518;SDS011;25200;53.394;10.414;2022-12-07T10:23:32;6.95;;;1.95;;
39518;SDS011;25200;53.394;10.414;2022-12-07T10:25:59;7.95;;;1.77;;
39518;SDS011;25200;53.394;10.414;2022-12-07T10:28:44;5.47;;;1.65;;
39518;SDS011;25200;53.394;10.414;2022-12-07T10:31:17;6.05;;;1.90;;
39518;SDS011;25200;53.394;10.414;2022-12-07T10:33:52;6.40;;;1.90;;
39518;SDS011;25200;53.394;10.414;2022-12-07T10:36:35;4.55;;;1.95;;
39518;SDS011;25200;53.394;10.414;2022-12-07T10:39:18;6.50;;;2.00;;
39518;SDS011;25200;53.394;10.414;2022-12-07T10:41:54;4.47;;;2.30;;
39518;SDS011;25200;53.394;10.414;2022-12-07T10:44:23;5.23;;;1.83;;
39518;SDS011;25200;53.394;10.414;2022-12-07T10:54:45;7.05;;;1.65;;
39518;SDS011;25200;53.394;10.414;2022-12-07T10:57:56;7.15;;;2.15;;
39518;SDS011;25200;53.394;10.414;2022-12-07T11:00:40;5.28;;;1.38;;
39518;SDS011;25200;53.394;10.414;2022-12-07T11:06:05;6.93;;;2.10;;
39518;SDS011;25200;53.394;10.414;2022-12-07T11:11:23;8.15;;;1.50;;
39518;SDS011;25200;53.394;10.414;2022-12-07T11:19:14;2.58;;;0.80;;
39518;SDS011;25200;53.394;10.414;2022-12-07T11:24:18;4.65;;;1.30;;
39518;SDS011;25200;53.394;10.414;2022-12-07T11:26:56;4.97;;;0.75;;
39518;SDS011;25200;53.394;10.414;2022-12-07T11:37:42;4.22;;;1.40;;
39518;SDS011;25200;53.394;10.414;2022-12-07T11:42:51;4.57;;;0.90;;
39518;SDS011;25200;53.394;10.414;2022-12-07T11:45:25;2.58;;;1.15;;
39518;SDS011;25200;53.394;10.414;2022-12-07T11:47:55;6.57;;;1.30;;
39518;SDS011;25200;53.394;10.414;2022-12-07T11:50:33;4.70;;;1.00;;
39518;SDS011;25200;53.394;10.414;2022-12-07T11:53:22;4.75;;;0.80;;
39518;SDS011;25200;53.394;10.414;2022-12-07T11:56:06;6.63;;;1.33;;
39518;SDS011;25200;53.394;10.414;2022-12-07T11:58:44;4.32;;;1.17;;
39518;SDS011;25200;53.394;10.414;2022-12-07T12:04:01;5.63;;;0.80;;
39518;SDS011;25200;53.394;10.414;2022-12-07T12:06:37;6.88;;;1.20;;
39518;SDS011;25200;53.394;10.414;2022-12-07T12:09:14;7.35;;;1.33;;
39518;SDS011;25200;53.394;10.414;2022-12-07T12:22:47;3.70;;;1.38;;
39518;SDS011;25200;53.394;10.414;2022-12-07T12:25:47;5.95;;;1.58;;
39518;SDS011;25200;53.394;10.414;2022-12-07T12:31:10;11.85;;;1.92;;
39518;SDS011;25200;53.394;10.414;2022-12-07T12:33:58;6.10;;;1.75;;
39518;SDS011;25200;53.394;10.414;2022-12-07T12:44:38;4.75;;;1.35;;
39518;SDS011;25200;53.394;10.414;2022-12-07T12:51:58;6.75;;;1.60;;
39518;SDS011;25200;53.394;10.414;2022-12-07T12:54:41;6.80;;;2.03;;
39518;SDS011;25200;53.394;10.414;2022-12-07T12:57:30;7.55;;;2.00;;
39518;SDS011;25200;53.394;10.414;2022-12-07T13:00:00;8.15;;;1.95;;
39518;SDS011;25200;53.394;10.414;2022-12-07T13:05:18;8.70;;;1.70;;
39518;SDS011;25200;53.394;10.414;2022-12-07T13:13:03;5.05;;;1.42;;
39518;SDS011;25200;53.394;10.414;2022-12-07T13:18:51;4.88;;;1.20;;
39518;SDS011;25200;53.394;10.414;2022-12-07T13:21:02;6.22;;;1.55;;
39518;SDS011;25200;53.394;10.414;2022-12-07T13:26:12;4.60;;;1.30;;
39518;SDS011;25200;53.394;10.414;2022-12-07T13:28:45;4.63;;;1.20;;
39518;SDS011;25200;53.394;10.414;2022-12-07T13:33:58;10.20;;;1.35;;
39518;SDS011;25200;53.394;10.414;2022-12-07T13:36:33;6.90;;;1.10;;
39518;SDS011;25200;53.394;10.414;2022-12-07T13:39:16;9.27;;;1.60;;
39518;SDS011;25200;53.394;10.414;2022-12-07T13:41:44;9.13;;;1.48;;
39518;SDS011;25200;53.394;10.414;2022-12-07T13:44:16;7.15;;;1.63;;
39518;SDS011;25200;53.394;10.414;2022-12-07T13:46:45;7.35;;;1.30;;
39518;SDS011;25200;53.394;10.414;2022-12-07T13:49:31;5.45;;;1.33;;
39518;SDS011;25200;53.394;10.414;2022-12-07T13:52:18;5.45;;;1.70;;
39518;SDS011;25200;53.394;10.414;2022-12-07T13:57:13;7.55;;;1.52;;
39518;SDS011;25200;53.394;10.414;2022-12-07T13:59:40;5.97;;;1.35;;
39518;SDS011;25200;53.394;10.414;2022-12-07T14:02:17;6.78;;;1.38;;
39518;SDS011;25200;53.394;10.414;2022-12-07T14:04:45;5.78;;;1.10;;
39518;SDS011;25200;53.394;10.414;2022-12-07T14:07:20;8.68;;;1.33;;
39518;SDS011;25200;53.394;10.414;2022-12-07T14:09:55;8.23;;;1.80;;
39518;SDS011;25200;53.394;10.414;2022-12-07T14:12:20;5.57;;;1.35;;
39518;SDS011;25200;53.394;10.414;2022-12-07T14:14:47;8.25;;;1.48;;
39518;SDS011;25200;53.394;10.414;2022-12-07T14:17:15;6.65;;;1.80;;
39518;SDS011;25200;53.394;10.414;2022-12-07T14:24:48;8.18;;;1.52;;
39518;SDS011;25200;53.394;10.414;2022-12-07T14:27:21;6.72;;;1.00;;
39518;SDS011;25200;53.394;10.414;2022-12-07T14:29:50;4.18;;;1.30;;
39518;SDS011;25200;53.394;10.414;2022-12-07T14:32:18;5.40;;;1.38;;
39518;SDS011;25200;53.394;10.414;2022-12-07T14:34:55;3.42;;;1.17;;
39518;SDS011;25200;53.394;10.414;2022-12-07T14:37:38;6.60;;;1.23;;
39518;SDS011;25200;53.394;10.414;2022-12-07T14:40:05;8.18;;;1.33;;
39518;SDS011;25200;53.394;10.414;2022-12-07T14:42:32;2.33;;;0.70;;
39518;SDS011;25200;53.394;10.414;2022-12-07T14:44:59;8.55;;;1.40;;
39518;SDS011;25200;53.394;10.414;2022-12-07T14:47:25;7.38;;;1.50;;
39518;SDS011;25200;53.394;10.414;2022-12-07T14:49:52;9.70;;;1.45;;
39518;SDS011;25200;53.394;10.414;2022-12-07T14:52:21;5.80;;;1.42;;
39518;SDS011;25200;53.394;10.414;2022-12-07T14:54:51;12.52;;;1.83;;
39518;SDS011;25200;53.394;10.414;2022-12-07T14:57:17;6.68;;;1.45;;
39518;SDS011;25200;53.394;10.414;2022-12-07T14:59:42;12.25;;;1.95;;
39518;SDS011;25200;53.394;10.414;2022-12-07T15:02:09;4.32;;;1.33;;
39518;SDS011;25200;53.394;10.414;2022-12-07T15:04:37;5.00;;;1.50;;
39518;SDS011;25200;53.394;10.414;2022-12-07T15:07:03;4.53;;;1.27;;
39518;SDS011;25200;53.394;10.414;2022-12-07T15:09:30;7.60;;;1.60;;
39518;SDS011;25200;53.394;10.414;2022-12-07T15:11:56;5.65;;;1.63;;
39518;SDS011;25200;53.394;10.414;2022-12-07T15:14:21;7.53;;;1.40;;
39518;SDS011;25200;53.394;10.414;2022-12-07T15:16:47;5.25;;;1.35;;
39518;SDS011;25200;53.394;10.414;2022-12-07T15:19:14;3.83;;;1.27;;
39518;SDS011;25200;53.394;10.414;2022-12-07T15:21:41;8.32;;;1.40;;
39518;SDS011;25200;53.394;10.414;2022-12-07T15:24:08;9.25;;;1.60;;
39518;SDS011;25200;53.394;10.414;2022-12-07T15:26:35;4.10;;;1.30;;
39518;SDS011;25200;53.394;10.414;2022-12-07T15:29:01;5.72;;;1.60;;
39518;SDS011;25200;53.394;10.414;2022-12-07T15:31:27;5.75;;;1.35;;
39518;SDS011;25200;53.394;10.414;2022-12-07T15:33:52;6.78;;;1.50;;
39518;SDS011;25200;53.394;10.414;2022-12-07T15:36:19;4.63;;;1.50;;
39518;SDS011;25200;53.394;10.414;2022-12-07T15:38:49;5.78;;;1.38;;
39518;SDS011;25200;53.394;10.414;2022-12-07T15:41:16;6.43;;;1.30;;
39518;SDS011;25200;53.394;10.414;2022-12-07T15:43:42;4.38;;;1.48;;
39518;SDS011;25200;53.394;10.414;2022-12-07T15:46:30;7.80;;;1.52;;
39518;SDS011;25200;53.394;10.414;2022-12-07T15:49:09;4.70;;;1.50;;
39518;SDS011;25200;53.394;10.414;2022-12-07T15:51:40;9.23;;;1.70;;
39518;SDS011;25200;53.394;10.414;2022-12-07T15:54:06;3.60;;;1.13;;
39518;SDS011;25200;53.394;10.414;2022-12-07T15:56:34;6.05;;;1.50;;
39518;SDS011;25200;53.394;10.414;2022-12-07T15:58:59;6.18;;;1.77;;
39518;SDS011;25200;53.394;10.414;2022-12-07T16:01:25;4.30;;;1.90;;
39518;SDS011;25200;53.394;10.414;2022-12-07T16:03:51;10.77;;;2.30;;
39518;SDS011;25200;53.394;10.414;2022-12-07T16:06:17;8.63;;;2.28;;
39518;SDS011;25200;53.394;10.414;2022-12-07T16:08:44;5.80;;;1.98;;
39518;SDS011;25200;53.394;10.414;2022-12-07T16:11:11;5.07;;;2.13;;
39518;SDS011;25200;53.394;10.414;2022-12-07T16:13:37;4.43;;;2.00;;
39518;SDS011;25200;53.394;10.414;2022-12-07T16:16:08;10.18;;;2.97;;
39518;SDS011;25200;53.394;10.414;2022-12-07T16:18:38;17.92;;;4.43;;
39518;SDS011;25200;53.394;10.414;2022-12-07T16:21:04;10.05;;;3.88;;
39518;SDS011;25200;53.394;10.414;2022-12-07T16:23:30;11.98;;;3.40;;
39518;SDS011;25200;53.394;10.414;2022-12-07T16:26:03;9.98;;;3.75;;
39518;SDS011;25200;53.394;10.414;2022-12-07T16:28:33;13.10;;;3.15;;
39518;SDS011;25200;53.394;10.414;2022-12-07T16:31:00;10.23;;;3.13;;
39518;SDS011;25200;53.394;10.414;2022-12-07T16:33:27;8.38;;;3.40;;
39518;SDS011;25200;53.394;10.414;2022-12-07T16:35:52;9.77;;;3.70;;
39518;SDS011;25200;53.394;10.414;2022-12-07T16:38:18;12.52;;;4.10;;
39518;SDS011;25200;53.394;10.414;2022-12-07T16:40:43;13.48;;;4.50;;
39518;SDS011;25200;53.394;10.414;2022-12-07T16:43:10;9.50;;;4.00;;
39518;SDS011;25200;53.394;10.414;2022-12-07T16:45:38;13.38;;;5.18;;
39518;SDS011;25200;53.394;10.414;2022-12-07T16:48:04;12.43;;;4.57;;
39518;SDS011;25200;53.394;10.414;2022-12-07T16:50:30;11.00;;;5.07;;
39518;SDS011;25200;53.394;10.414;2022-12-07T16:52:55;15.88;;;5.57;;